• Join FlightAware (Why Join?)
  • Login
  • US Flag 
12:33PM EST


 

Airport Tracker/Info


-or-


 

Live Flight TrackerFlight Track Log ✈ N75ZM ✈ 28-Nov-2013 ✈ KCRG - KPDK

Flight Track Log - Related Links

Times and Time Zones

All times are in EST time to prevent confusion due to time zone crossing. See the N75ZM flight status page for this flight to view local times or setup timezone preferences in your user account.

Time Position Orientation Groundspeed Altitude Reporting Facility
EST Latitude Longitude Course Direction KTS MPH feet Rate Location/Type
08:36AM 30.5222 -81.5350 331° Northwest 133 153 5,300  Level Jacksonville Center
08:37AM 30.5517 -81.5539 331° Northwest 128 147 6,000 600 Climbing Jacksonville Center
08:38AM 30.5856 -81.5750 332° Northwest 135 155 6,600 120 Climbing Jacksonville Center
08:44AM 30.8333 -81.7289 332° Northwest 172 198 7,100 60 Climbing Jacksonville Center
08:45AM 30.8733 -81.7550 331° Northwest 172 198 7,100  Level Jacksonville Center
08:46AM 30.9153 -81.7786 334° Northwest 166 191 7,100  Level Jacksonville Center
08:47AM 30.9572 -81.8047 332° Northwest 166 191 7,100  Level Jacksonville Center
08:48AM 30.9950 -81.8311 329° Northwest 166 191 7,100  Level Jacksonville Center
08:49AM 31.0369 -81.8572 332° Northwest 166 191 7,100  Level Jacksonville Center
08:50AM 31.0767 -81.8811 333° Northwest 166 191 7,100  Level Jacksonville Center
08:51AM 31.1167 -81.9050 333° Northwest 160 184 7,100  Level Jacksonville Center
08:52AM 31.1522 -81.9264 333° Northwest 165 190 7,100  Level Jacksonville Center
08:53AM 31.1942 -81.9528 332° Northwest 165 190 7,100  Level Jacksonville Center
08:54AM 31.2342 -81.9767 333° Northwest 162 186 7,100 -120 Level Jacksonville Center
08:55AM 31.2739 -82.0031 330° Northwest 162 186 6,900 -300 Descending Jacksonville Center
08:56AM 31.3139 -82.0317 329° Northwest 167 192 6,600 -300 Descending Jacksonville Center
08:57AM 31.3536 -82.0581 330° Northwest 167 192 6,400 -240 Descending Jacksonville Center
08:58AM 31.3978 -82.0819 335° Northwest 167 192 6,200 -180 Descending Jacksonville Center
08:59AM 31.4397 -82.1086 332° Northwest 167 192 6,100 -60 Descending Jacksonville Center
09:00AM 31.4772 -82.1325 331° Northwest 167 192 6,100  Level Jacksonville Center
09:01AM 31.5131 -82.1567 330° Northwest 162 186 6,100  Level Jacksonville Center
09:02AM 31.5550 -82.1831 332° Northwest 162 186 6,100  Level Jacksonville Center
09:03AM 31.5967 -82.2097 331° Northwest 162 186 6,100  Level Jacksonville Center
09:04AM 31.6386 -82.2361 332° Northwest 162 186 6,100  Level Jacksonville Center
09:05AM 31.6786 -82.2603 333° Northwest 167 192 6,100  Level Jacksonville Center
09:06AM 31.7119 -82.2819 331° Northwest 162 186 6,100  Level Jacksonville Center
09:07AM 31.7581 -82.3111 332° Northwest 162 186 6,100  Level Jacksonville Center
09:08AM 31.7978 -82.3378 330° Northwest 162 186 6,100  Level Jacksonville Center
09:09AM 31.8397 -82.3644 332° Northwest 162 186 6,100  Level Jacksonville Center
09:10AM 31.8775 -82.3911 329° Northwest 162 186 6,100  Level Jacksonville Center
09:11AM 31.9172 -82.4153 333° Northwest 162 186 6,100  Level Jacksonville Center
09:12AM 31.9547 -82.4394 331° Northwest 162 186 6,100  Level Jacksonville Center
09:13AM 31.9947 -82.4664 330° Northwest 162 186 6,100  Level Jacksonville Center
09:14AM 32.0344 -82.4906 333° Northwest 162 186 6,100  Level Jacksonville Center
09:15AM 32.0742 -82.5150 332° Northwest 162 186 6,100  Level Jacksonville Center
09:16AM 32.1117 -82.5442 327° Northwest 162 186 6,100  Level Jacksonville Center
09:17AM 32.1536 -82.5686 334° Northwest 162 186 6,100  Level Jacksonville Center
09:18AM 32.1933 -82.5931 332° Northwest 162 186 6,200  Climbing Jacksonville Center
09:20AM 32.2667 -82.6333 335° Northwest 165 190 6,100 -60 Descending Atlanta TRACON
09:21AM 32.3167 -82.6667 331° Northwest 161 185 6,100  Level Atlanta TRACON
09:22AM 32.3500 -82.6833 337° Northwest 164 189 6,100  Level Atlanta TRACON
09:23AM 32.3833 -82.7167 320° Northwest 162 186 6,100  Level Atlanta TRACON
09:24AM 32.4333 -82.7500 331° Northwest 163 188 6,200  Climbing Atlanta TRACON
09:25AM 32.4667 -82.7667 337° Northwest 166 191 6,100 -60 Descending Atlanta TRACON
09:26AM 32.5000 -82.8000 320° Northwest 163 188 6,100  Level Atlanta TRACON
09:27AM 32.5500 -82.8167 344° North 163 188 6,100  Level Atlanta TRACON
09:28AM 32.5833 -82.8500 320° Northwest 164 189 6,100  Level Atlanta TRACON
09:29AM 32.6167 -82.8833 320° Northwest 167 192 6,100  Level Atlanta TRACON
09:30AM 32.6500 -82.9167 320° Northwest 167 192 6,100  Level Atlanta TRACON
09:31AM 32.6833 -82.9500 320° Northwest 164 189 6,100  Level Atlanta TRACON
09:32AM 32.7167 -82.9833 320° Northwest 165 190 6,100  Level Atlanta TRACON
09:33AM 32.7500 -83.0333 308° West 164 189 6,100  Level Atlanta TRACON
09:34AM 32.7833 -83.0667 320° Northwest 167 192 6,100  Level Atlanta TRACON
09:35AM 32.8333 -83.1000 331° Northwest 164 189 6,100  Level Atlanta TRACON
09:36AM 32.8667 -83.1333 320° Northwest 166 191 6,100  Level Atlanta TRACON
09:37AM 32.9000 -83.1667 320° Northwest 164 189 6,100  Level Atlanta TRACON
09:38AM 32.9333 -83.2000 320° Northwest 164 189 6,100  Level Atlanta TRACON
09:39AM 32.9667 -83.2333 320° Northwest 165 190 6,100  Level Atlanta TRACON
09:41AM 33.0333 -83.3000 320° Northwest 165 190 6,100  Level Atlanta TRACON
09:42AM 33.0667 -83.3500 309° West 166 191 6,100  Level Atlanta TRACON
09:43AM 33.1000 -83.3667 337° Northwest 168 193 6,100  Level Atlanta TRACON
09:44AM 33.1333 -83.4167 309° West 167 192 6,100  Level Atlanta TRACON
09:46AM 33.1858 -83.4655 322° Northwest  Level FlightAware Approximate
09:47AM 33.2500 -83.5167 322° Northwest 164 189 6,200  Level Atlanta TRACON
09:48AM 33.2833 -83.5500 320° Northwest 167 192 6,200  Level Atlanta TRACON
09:49AM 33.3167 -83.6000 309° West 168 193 6,200  Level Atlanta TRACON
09:50AM 33.3500 -83.6333 320° Northwest 176 203 6,200  Level Atlanta TRACON
09:51AM 33.3833 -83.6667 320° Northwest 160 184 6,200 -120 Level Atlanta TRACON
09:52AM 33.4167 -83.7000 320° Northwest 167 192 6,000 -240 Descending Atlanta TRACON
09:53AM 33.4667 -83.7167 344° North 174 200 5,800 -240 Descending Atlanta TRACON
09:54AM 33.5167 -83.7500 331° Northwest 173 199 5,600 -300 Descending Atlanta TRACON
09:55AM 33.5500 -83.7833 320° Northwest 173 199 5,300 -300 Descending Atlanta TRACON
09:56AM 33.6000 -83.8000 344° North 173 199 5,000 -300 Descending Atlanta TRACON
09:57AM 33.6500 -83.8333 331° Northwest 174 200 4,700 -240 Descending Atlanta TRACON
09:58AM 33.6833 -83.8667 320° Northwest 173 199 4,500 -300 Descending Atlanta TRACON
09:59AM 33.7167 -83.8833 337° Northwest 171 197 4,200 -300 Descending Atlanta TRACON
10:00AM 33.7333 -83.9500 287° West 173 199 3,900 -300 Descending Atlanta TRACON
10:01AM 33.7500 -84.0000 292° West 173 199 3,700 -300 Descending Atlanta TRACON
10:02AM 33.7833 -84.0500 309° West 173 199 3,400 -300 Descending Atlanta TRACON
10:03AM 33.8000 -84.1000 292° West 170 196 3,200 -120 Descending Atlanta TRACON
10:04AM 33.8167 -84.1500 292° West 172 198 3,200 -120 Level Atlanta TRACON
10:05AM 33.8333 -84.2000 292° West 161 185 3,000 -420 Descending Atlanta TRACON
10:06AM 33.8333 -84.2500 270° West 136 157 2,400 -480 Descending Atlanta TRACON
10:07AM 33.8500 -84.2833 301° West 105 121 2,100 -420 Descending Atlanta TRACON
10:08AM 33.8500 -84.3167 270° West 109 125 1,700 -480 Descending Atlanta TRACON
10:10AM 33.8667 -84.3000 301° West  Level FlightAware Approximate
10:17AM 33.8756 -84.3020 301° West  Level Estimated
10:18AM 33.8756 -84.3020 301° West  Level Estimated